1858 UTC 26 June 2016 found at http://aviationweather.gov/adds/metars/
 
METAR text: KAFF 261758Z AUTO 14012KT 10SM M 25/12 A3031 RMK AO2 SLP175 T02460124 10246 20094 57005 $
Conditions at: KAFF (USAF ACADEMY/COS, CO, US) observed 1758 UTC 26 June 2016
Temperature: 24.6°C (76°F)
Dewpoint: 12.4°C (54°F) [RH = 47%]
Pressure (altimeter): 30.31 inches Hg (1026.5 mb[Sea-level pressure: 1017.5 mb]
Winds: from the SE (140 degrees) at 14 MPH (12 knots; 6.2 m/s)
Visibility: 10 or more miles (16+ km)
Ceiling: unknown
Clouds: missing
Weather:
SOME DATA ABOVE MAY BE INACCURATE!!!
"$" is an indication the sensor requires maintenance

METAR text: KAFF 261755Z AUTO 14013KT 10SM M 25/12 A3031 RMK AO2 WSHFT 49 $
Conditions at: KAFF (USAF ACADEMY/COS, CO, US) observed 1755 UTC 26 June 2016
Temperature: 25.0°C (77°F)
Dewpoint: 12.0°C (54°F) [RH = 44%]
Pressure (altimeter): 30.31 inches Hg (1026.5 mb)
Winds: from the SE (140 degrees) at 15 MPH (13 knots; 6.8 m/s)
Visibility: 10 or more miles (16+ km)
Ceiling: unknown
Clouds: missing
Weather:
SOME DATA ABOVE MAY BE INACCURATE!!!
"$" is an indication the sensor requires maintenance

METAR text: KAFF 261658Z AUTO VRB05KT 10SM M 23/12 A3032 RMK AO2 SLP178 T02340121 $
Conditions at: KAFF (USAF ACADEMY/COS, CO, US) observed 1658 UTC 26 June 2016
Temperature: 23.4°C (74°F)
Dewpoint: 12.1°C (54°F) [RH = 49%]
Pressure (altimeter): 30.32 inches Hg (1026.8 mb[Sea-level pressure: 1017.8 mb]
Winds: variable direction winds at 6 MPH (5 knots; 2.6 m/s)
Visibility: 10 or more miles (16+ km)
Ceiling: unknown
Clouds: missing
Weather:
SOME DATA ABOVE MAY BE INACCURATE!!!
"$" is an indication the sensor requires maintenance

METAR text: KAFF 261558Z AUTO 20006KT 10SM M 22/11 A3032 RMK AO2 SLP183 T02160113 $
Conditions at: KAFF (USAF ACADEMY/COS, CO, US) observed 1558 UTC 26 June 2016
Temperature: 21.6°C (71°F)
Dewpoint: 11.3°C (52°F) [RH = 52%]
Pressure (altimeter): 30.32 inches Hg (1026.8 mb[Sea-level pressure: 1018.3 mb]
Winds: from the SSW (200 degrees) at 7 MPH (6 knots; 3.1 m/s)
Visibility: 10 or more miles (16+ km)
Ceiling: unknown
Clouds: missing
Weather:
SOME DATA ABOVE MAY BE INACCURATE!!!
"$" is an indication the sensor requires maintenance

METAR text: KAFF 261458Z AUTO 18005KT 10SM M 19/11 A3033 RMK AO2 SLP187 T01940109 51001 $
Conditions at: KAFF (USAF ACADEMY/COS, CO, US) observed 1458 UTC 26 June 2016
Temperature: 19.4°C (67°F)
Dewpoint: 10.9°C (52°F) [RH = 58%]
Pressure (altimeter): 30.33 inches Hg (1027.2 mb[Sea-level pressure: 1018.7 mb]
Winds: from the S (180 degrees) at 6 MPH (5 knots; 2.6 m/s)
Visibility: 10 or more miles (16+ km)
Ceiling: unknown
Clouds: missing
Weather:
SOME DATA ABOVE MAY BE INACCURATE!!!
"$" is an indication the sensor requires maintenance

METAR text: KAFF 261358Z AUTO 00000KT 10SM CLR 17/11 A3033 RMK AO2 SLP192 T01680107 $
Conditions at: KAFF (USAF ACADEMY/COS, CO, US) observed 1358 UTC 26 June 2016
Temperature: 16.8°C (62°F)
Dewpoint: 10.7°C (51°F) [RH = 67%]
Pressure (altimeter): 30.33 inches Hg (1027.2 mb[Sea-level pressure: 1019.2 mb]
Winds: calm
Visibility: 10 or more miles (16+ km)
Ceiling: at least 12,000 feet AGL
Clouds: sky clear below 12,000 feet AGL
Weather:
SOME DATA ABOVE MAY BE INACCURATE!!!
"$" is an indication the sensor requires maintenance

METAR text: KAFF 261258Z AUTO 36006KT 10SM M 11/10 A3032 RMK AO2 SLP204 T01140103 $
Conditions at: KAFF (USAF ACADEMY/COS, CO, US) observed 1258 UTC 26 June 2016
Temperature: 11.4°C (53°F)
Dewpoint: 10.3°C (51°F) [RH = 93%]
Pressure (altimeter): 30.32 inches Hg (1026.8 mb[Sea-level pressure: 1020.4 mb]
Winds: from the N (360 degrees) at 7 MPH (6 knots; 3.1 m/s)
Visibility: 10 or more miles (16+ km)
Ceiling: unknown
Clouds: missing
Weather:
SOME DATA ABOVE MAY BE INACCURATE!!!
"$" is an indication the sensor requires maintenance

METAR text: KAFF 261158Z AUTO 36008KT 10SM CLR 09/09 A3032 RMK AO2 SLP204 70004 T00940093 10152 20094 53000 $
Conditions at: KAFF (USAF ACADEMY/COS, CO, US) observed 1158 UTC 26 June 2016
Temperature: 9.4°C (49°F)
Dewpoint: 9.3°C (49°F) [RH = 99%]
Pressure (altimeter): 30.32 inches Hg (1026.8 mb[Sea-level pressure: 1020.4 mb]
Winds: from the N (360 degrees) at 9 MPH (8 knots; 4.2 m/s)
Visibility: 10 or more miles (16+ km)
Ceiling: at least 12,000 feet AGL
Clouds: sky clear below 12,000 feet AGL
Weather:
SOME DATA ABOVE MAY BE INACCURATE!!!
"$" is an indication the sensor requires maintenance

METAR text: KAFF 261058Z AUTO 01008KT 10SM M 10/10 A3031 RMK AO2 SLP195 T00970095 $
Conditions at: KAFF (USAF ACADEMY/COS, CO, US) observed 1058 UTC 26 June 2016
Temperature: 9.7°C (49°F)
Dewpoint: 9.5°C (49°F) [RH = 99%]
Pressure (altimeter): 30.31 inches Hg (1026.5 mb[Sea-level pressure: 1019.5 mb]
Winds: from the N (10 degrees) at 9 MPH (8 knots; 4.2 m/s)
Visibility: 10 or more miles (16+ km)
Ceiling: unknown
Clouds: missing
Weather:
SOME DATA ABOVE MAY BE INACCURATE!!!
"$" is an indication the sensor requires maintenance

METAR text: KAFF 260958Z AUTO 36007KT 10SM M 11/11 A3031 RMK AO2 SLP200 T01100107 $
Conditions at: KAFF (USAF ACADEMY/COS, CO, US) observed 0958 UTC 26 June 2016
Temperature: 11.0°C (52°F)
Dewpoint: 10.7°C (51°F) [RH = 98%]
Pressure (altimeter): 30.31 inches Hg (1026.5 mb[Sea-level pressure: 1020.0 mb]
Winds: from the N (360 degrees) at 8 MPH (7 knots; 3.6 m/s)
Visibility: 10 or more miles (16+ km)
Ceiling: unknown
Clouds: missing
Weather:
SOME DATA ABOVE MAY BE INACCURATE!!!
"$" is an indication the sensor requires maintenance

METAR text: KAFF 260858Z AUTO 01006KT 10SM M 13/12 A3032 RMK AO2 SLP194 T01250117 58009 $
Conditions at: KAFF (USAF ACADEMY/COS, CO, US) observed 0858 UTC 26 June 2016
Temperature: 12.5°C (54°F)
Dewpoint: 11.7°C (53°F) [RH = 95%]
Pressure (altimeter): 30.32 inches Hg (1026.8 mb[Sea-level pressure: 1019.4 mb]
Winds: from the N (10 degrees) at 7 MPH (6 knots; 3.1 m/s)
Visibility: 10 or more miles (16+ km)
Ceiling: unknown
Clouds: missing
Weather:
SOME DATA ABOVE MAY BE INACCURATE!!!
"$" is an indication the sensor requires maintenance

METAR text: KAFF 260758Z AUTO 06004KT 10SM M 14/11 A3035 RMK AO2 SLP189 T01390114 $
Conditions at: KAFF (USAF ACADEMY/COS, CO, US) observed 0758 UTC 26 June 2016
Temperature: 13.9°C (57°F)
Dewpoint: 11.4°C (53°F) [RH = 85%]
Pressure (altimeter): 30.35 inches Hg (1027.9 mb[Sea-level pressure: 1018.9 mb]
Winds: from the ENE (60 degrees) at 5 MPH (4 knots; 2.1 m/s)
Visibility: 10 or more miles (16+ km)
Ceiling: unknown
Clouds: missing
Weather:
SOME DATA ABOVE MAY BE INACCURATE!!!
"$" is an indication the sensor requires maintenance

METAR text: KAFF 260658Z AUTO 20006KT 10SM M 14/12 A3036 RMK AO2 SLP189 T01430120 402800136 $
Conditions at: KAFF (USAF ACADEMY/COS, CO, US) observed 0658 UTC 26 June 2016
Temperature: 14.3°C (58°F)
Dewpoint: 12.0°C (54°F) [RH = 86%]
Pressure (altimeter): 30.36 inches Hg (1028.2 mb[Sea-level pressure: 1018.9 mb]
Winds: from the SSW (200 degrees) at 7 MPH (6 knots; 3.1 m/s)
Visibility: 10 or more miles (16+ km)
Ceiling: unknown
Clouds: missing
Weather:
SOME DATA ABOVE MAY BE INACCURATE!!!
"$" is an indication the sensor requires maintenance

METAR text: KAFF 260558Z AUTO 14008KT 10SM M 15/13 A3036 RMK AO2 RAE0458DZB0458E00 SLP189 P0001 60004 T01510130 10211 20147 51031 $
Conditions at: KAFF (USAF ACADEMY/COS, CO, US) observed 0558 UTC 26 June 2016
Temperature: 15.1°C (59°F)
Dewpoint: 13.0°C (55°F) [RH = 87%]
Pressure (altimeter): 30.36 inches Hg (1028.2 mb[Sea-level pressure: 1018.9 mb]
Winds: from the SE (140 degrees) at 9 MPH (8 knots; 4.2 m/s)
Visibility: 10 or more miles (16+ km)
Ceiling: unknown
Clouds: missing
Weather:
SOME DATA ABOVE MAY BE INACCURATE!!!
"$" is an indication the sensor requires maintenance

METAR text: KAFF 260500Z AUTO 26005KT 10SM M 16/13 A3035 RMK AO2 RAE0458DZB0458E00 $
Conditions at: KAFF (USAF ACADEMY/COS, CO, US) observed 0500 UTC 26 June 2016
Temperature: 16.0°C (61°F)
Dewpoint: 13.0°C (55°F) [RH = 82%]
Pressure (altimeter): 30.35 inches Hg (1027.9 mb)
Winds: from the W (260 degrees) at 6 MPH (5 knots; 2.6 m/s)
Visibility: 10 or more miles (16+ km)
Ceiling: unknown
Clouds: missing
Weather:
SOME DATA ABOVE MAY BE INACCURATE!!!
"$" is an indication the sensor requires maintenance

METAR text: KAFF 260458Z AUTO 28004KT 10SM -RA M 16/13 A3035 RMK AO2 RAB35 SLP185 P0001 T01580126 $
Conditions at: KAFF (USAF ACADEMY/COS, CO, US) observed 0458 UTC 26 June 2016
Temperature: 15.8°C (60°F)
Dewpoint: 12.6°C (55°F) [RH = 81%]
Pressure (altimeter): 30.35 inches Hg (1027.9 mb[Sea-level pressure: 1018.5 mb]
Winds: from the W (280 degrees) at 5 MPH (4 knots; 2.1 m/s)
Visibility: 10 or more miles (16+ km)
Ceiling: unknown
Clouds: missing
Weather: -RA  (light rainSOME DATA ABOVE MAY BE INACCURATE!!!
"$" is an indication the sensor requires maintenance

METAR text: KAFF 260435Z AUTO 01007KT 10SM -RA M 15/14 A3035 RMK AO2 RAB35 PRESRR $
Conditions at: KAFF (USAF ACADEMY/COS, CO, US) observed 0435 UTC 26 June 2016
Temperature: 15.0°C (59°F)
Dewpoint: 14.0°C (57°F) [RH = 94%]
Pressure (altimeter): 30.35 inches Hg (1027.9 mb)
Winds: from the N (10 degrees) at 8 MPH (7 knots; 3.6 m/s)
Visibility: 10 or more miles (16+ km)
Ceiling: unknown
Clouds: missing
Weather: -RA  (light rainSOME DATA ABOVE MAY BE INACCURATE!!!
"$" is an indication the sensor requires maintenance

METAR text: KAFF 260358Z AUTO 36007KT 10SM M 15/14 A3028 RMK AO2 SLP164 T01540140 $
Conditions at: KAFF (USAF ACADEMY/COS, CO, US) observed 0358 UTC 26 June 2016
Temperature: 15.4°C (60°F)
Dewpoint: 14.0°C (57°F) [RH = 91%]
Pressure (altimeter): 30.28 inches Hg (1025.5 mb[Sea-level pressure: 1016.4 mb]
Winds: from the N (360 degrees) at 8 MPH (7 knots; 3.6 m/s)
Visibility: 10 or more miles (16+ km)
Ceiling: unknown
Clouds: missing
Weather:
SOME DATA ABOVE MAY BE INACCURATE!!!
"$" is an indication the sensor requires maintenance

METAR text: KAFF 260258Z AUTO 36004KT 10SM SCT120 BKN170 17/15 A3024 RMK AO2 SLP147 60002 T01670153 50002 $
Conditions at: KAFF (USAF ACADEMY/COS, CO, US) observed 0258 UTC 26 June 2016
Temperature: 16.7°C (62°F)
Dewpoint: 15.3°C (60°F) [RH = 91%]
Pressure (altimeter): 30.24 inches Hg (1024.1 mb[Sea-level pressure: 1014.7 mb]
Winds: from the N (360 degrees) at 5 MPH (4 knots; 2.1 m/s)
Visibility: 10 or more miles (16+ km)
Ceiling: 17000 feet AGL
Clouds: scattered clouds at 12000 feet AGL
broken clouds at 17000 feet AGL
Weather:
SOME DATA ABOVE MAY BE INACCURATE!!!
"$" is an indication the sensor requires maintenance

METAR text: KAFF 260158Z AUTO VRB02KT 10SM M 18/15 A3024 RMK AO2 SLP155 T01790146 $
Conditions at: KAFF (USAF ACADEMY/COS, CO, US) observed 0158 UTC 26 June 2016
Temperature: 17.9°C (64°F)
Dewpoint: 14.6°C (58°F) [RH = 81%]
Pressure (altimeter): 30.24 inches Hg (1024.1 mb[Sea-level pressure: 1015.5 mb]
Winds: variable direction winds at 2 MPH (2 knots; 1.0 m/s)
Visibility: 10 or more miles (16+ km)
Ceiling: unknown
Clouds: missing
Weather:
SOME DATA ABOVE MAY BE INACCURATE!!!
"$" is an indication the sensor requires maintenance

METAR text: KAFF 260058Z AUTO 27003KT 10SM SCT047 SCT200 17/14 A3025 RMK AO2 DZB07E12RAB12E48 SLP169 P0002 T01740140 $
Conditions at: KAFF (USAF ACADEMY/COS, CO, US) observed 0058 UTC 26 June 2016
Temperature: 17.4°C (63°F)
Dewpoint: 14.0°C (57°F) [RH = 80%]
Pressure (altimeter): 30.25 inches Hg (1024.5 mb[Sea-level pressure: 1016.9 mb]
Winds: from the W (270 degrees) at 3 MPH (3 knots; 1.6 m/s)
Visibility: 10 or more miles (16+ km)
Ceiling: at least 12,000 feet AGL
Clouds: scattered clouds at 4700 feet AGL
scattered clouds at 20000 feet AGL
Weather:
SOME DATA ABOVE MAY BE INACCURATE!!!
"$" is an indication the sensor requires maintenance

METAR text: KAFF 260053Z AUTO 25005KT 10SM SCT050 SCT210 17/14 A3025 RMK AO2 DZB07E12RAB12E48 $
Conditions at: KAFF (USAF ACADEMY/COS, CO, US) observed 0053 UTC 26 June 2016
Temperature: 17.0°C (63°F)
Dewpoint: 14.0°C (57°F) [RH = 82%]
Pressure (altimeter): 30.25 inches Hg (1024.5 mb)
Winds: from the WSW (250 degrees) at 6 MPH (5 knots; 2.6 m/s)
Visibility: 10 or more miles (16+ km)
Ceiling: at least 12,000 feet AGL
Clouds: scattered clouds at 5000 feet AGL
scattered clouds at 21000 feet AGL
Weather:
SOME DATA ABOVE MAY BE INACCURATE!!!
"$" is an indication the sensor requires maintenance

METAR text: KAFF 260048Z AUTO 29003KT 10SM BKN049 BKN065 BKN210 17/14 A3025 RMK AO2 DZB07E12RAB12E48 $
Conditions at: KAFF (USAF ACADEMY/COS, CO, US) observed 0048 UTC 26 June 2016
Temperature: 17.0°C (63°F)
Dewpoint: 14.0°C (57°F) [RH = 82%]
Pressure (altimeter): 30.25 inches Hg (1024.5 mb)
Winds: from the WNW (290 degrees) at 3 MPH (3 knots; 1.6 m/s)
Visibility: 10 or more miles (16+ km)
Ceiling: 4900 feet AGL
Clouds: broken clouds at 4900 feet AGL
broken clouds at 6500 feet AGL
broken clouds at 21000 feet AGL
Weather:
SOME DATA ABOVE MAY BE INACCURATE!!!
"$" is an indication the sensor requires maintenance

METAR text: KAFF 260047Z AUTO 31002KT 10SM -RA BKN049 BKN065 BKN210 17/14 A3025 RMK AO2 DZB07E12RAB12 $
Conditions at: KAFF (USAF ACADEMY/COS, CO, US) observed 0047 UTC 26 June 2016
Temperature: 17.0°C (63°F)
Dewpoint: 14.0°C (57°F) [RH = 82%]
Pressure (altimeter): 30.25 inches Hg (1024.5 mb)
Winds: from the NW (310 degrees) at 2 MPH (2 knots; 1.0 m/s)
Visibility: 10 or more miles (16+ km)
Ceiling: 4900 feet AGL
Clouds: broken clouds at 4900 feet AGL
broken clouds at 6500 feet AGL
broken clouds at 21000 feet AGL
Weather: -RA  (light rainSOME DATA ABOVE MAY BE INACCURATE!!!
"$" is an indication the sensor requires maintenance

METAR text: KAFF 260042Z AUTO 33003KT 6SM -RA FEW042 BKN050 OVC070 17/14 A3026 RMK AO2 LTG DSNT E DZB07E12RAB12 $
Conditions at: KAFF (USAF ACADEMY/COS, CO, US) observed 0042 UTC 26 June 2016
Temperature: 17.0°C (63°F)
Dewpoint: 14.0°C (57°F) [RH = 82%]
Pressure (altimeter): 30.26 inches Hg (1024.8 mb)
Winds: from the NNW (330 degrees) at 3 MPH (3 knots; 1.6 m/s)
Visibility: 6 miles (10 km)
Ceiling: 5000 feet AGL
Clouds: few clouds at 4200 feet AGL
broken clouds at 5000 feet AGL
overcast cloud deck at 7000 feet AGL
Weather: -RA  (light rainSOME DATA ABOVE MAY BE INACCURATE!!!
"$" is an indication the sensor requires maintenance

METAR text: KAFF 260012Z AUTO 34011KT 10SM -DZ M 21/10 A3026 RMK AO2 WSHFT 05 LTG DSNT E DZB07 $
Conditions at: KAFF (USAF ACADEMY/COS, CO, US) observed 0012 UTC 26 June 2016
Temperature: 21.0°C (70°F)
Dewpoint: 10.0°C (50°F) [RH = 49%]
Pressure (altimeter): 30.26 inches Hg (1024.8 mb)
Winds: from the NNW (340 degrees) at 13 MPH (11 knots; 5.7 m/s)
Visibility: 10 or more miles (16+ km)
Ceiling: unknown
Clouds: missing
Weather: -DZ  (light drizzleSOME DATA ABOVE MAY BE INACCURATE!!!
"$" is an indication the sensor requires maintenance

METAR text: KAFF 260007Z AUTO 01011KT 10SM -DZ M 21/09 A3025 RMK AO2 LTG DSNT E AND W DZB07 $
Conditions at: KAFF (USAF ACADEMY/COS, CO, US) observed 0007 UTC 26 June 2016
Temperature: 21.0°C (70°F)
Dewpoint: 9.0°C (48°F) [RH = 46%]
Pressure (altimeter): 30.25 inches Hg (1024.5 mb)
Winds: from the N (10 degrees) at 13 MPH (11 knots; 5.7 m/s)
Visibility: 10 or more miles (16+ km)
Ceiling: unknown
Clouds: missing
Weather: -DZ  (light drizzleSOME DATA ABOVE MAY BE INACCURATE!!!
"$" is an indication the sensor requires maintenance

METAR text: KAFF 252358Z AUTO 03008KT 10SM M 21/08 A3024 RMK AO2 LTG DSNT W SLP155 60000 T02140078 10280 20179 55000 $
Conditions at: KAFF (USAF ACADEMY/COS, CO, US) observed 2358 UTC 25 June 2016
Temperature: 21.4°C (71°F)
Dewpoint: 7.8°C (46°F) [RH = 42%]
Pressure (altimeter): 30.24 inches Hg (1024.1 mb[Sea-level pressure: 1015.5 mb]
Winds: from the NNE (30 degrees) at 9 MPH (8 knots; 4.2 m/s)
Visibility: 10 or more miles (16+ km)
Ceiling: unknown
Clouds: missing
Weather:
SOME DATA ABOVE MAY BE INACCURATE!!!
"$" is an indication the sensor requires maintenance

METAR text: KAFF 252258Z AUTO 01006KT 10SM BKN120 21/10 A3020 RMK AO2 LTG DSNT E-SE SLP146 T02130099
Conditions at: KAFF (USAF ACADEMY/COS, CO, US) observed 2258 UTC 25 June 2016
Temperature: 21.3°C (70°F)
Dewpoint: 9.9°C (50°F) [RH = 48%]
Pressure (altimeter): 30.20 inches Hg (1022.8 mb[Sea-level pressure: 1014.6 mb]
Winds: from the N (10 degrees) at 7 MPH (6 knots; 3.1 m/s)
Visibility: 10 or more miles (16+ km)
Ceiling: 12000 feet AGL
Clouds: broken clouds at 12000 feet AGL
Weather: automated observation with no human augmentation;
there may or may not be significant weather present at this time

METAR text: KAFF 252158Z AUTO 34012KT 10SM FEW120 19/11 A3018 RMK AO2 PK WND 34030/2058 LTG DSNT E-SE RAB12E36 TSB10E25 PRESFR SLP139 P0000 T01910112
Conditions at: KAFF (USAF ACADEMY/COS, CO, US) observed 2158 UTC 25 June 2016
Temperature: 19.1°C (66°F)
Dewpoint: 11.2°C (52°F) [RH = 60%]
Pressure (altimeter): 30.18 inches Hg (1022.1 mb[Sea-level pressure: 1013.9 mb]
Winds: from the NNW (340 degrees) at 14 MPH (12 knots; 6.2 m/s)
Visibility: 10 or more miles (16+ km)
Ceiling: at least 12,000 feet AGL
Clouds: few clouds at 12000 feet AGL
Weather: automated observation with no human augmentation;
there may or may not be significant weather present at this time

METAR text: KAFF 252142Z AUTO 36011G17KT 10SM FEW075 SCT110 19/11 A3020 RMK AO2 WSHFT 38 LTG DSNT N AND E RAB12E36 TSB10E25
Conditions at: KAFF (USAF ACADEMY/COS, CO, US) observed 2142 UTC 25 June 2016
Temperature: 19.0°C (66°F)
Dewpoint: 11.0°C (52°F) [RH = 60%]
Pressure (altimeter): 30.20 inches Hg (1022.8 mb)
Winds: from the N (360 degrees) at 13 MPH (11 knots; 5.7 m/sgusting to 20 MPH (17 knots; 8.8 m/s)
Visibility: 10 or more miles (16+ km)
Ceiling: at least 12,000 feet AGL
Clouds: few clouds at 7500 feet AGL
scattered clouds at 11000 feet AGL
Weather: automated observation with no human augmentation;
there may or may not be significant weather present at this time

METAR text: KAFF 252137Z 33013G17KT 310V010 10SM SCT070 BKN120 19/10 A3020 RMK AO2A LTG DSNT NW-N RAB12E36 TSB10E25
Conditions at: KAFF (USAF ACADEMY/COS, CO, US) observed 2137 UTC 25 June 2016
Temperature: 19.0°C (66°F)
Dewpoint: 10.0°C (50°F) [RH = 56%]
Pressure (altimeter): 30.20 inches Hg (1022.8 mb)
Winds: from the NNW (330 degrees) at 15 MPH (13 knots; 6.8 m/sgusting to 20 MPH (17 knots; 8.8 m/s)
Visibility: 10 or more miles (16+ km)
Ceiling: 12000 feet AGL
Clouds: scattered clouds at 7000 feet AGL
broken clouds at 12000 feet AGL
Weather: no significant weather observed at this time

METAR text: KAFF 252125Z 04018G21KT 10SM -RA VCTS BKN075 BKN110 18/09 A3020 RMK AO2A LTG DSNT NE-S AND W-NW RAB12 TSB10E25GSB23E25 PRESFR
Conditions at: KAFF (USAF ACADEMY/COS, CO, US) observed 2125 UTC 25 June 2016
Temperature: 18.0°C (64°F)
Dewpoint: 9.0°C (48°F) [RH = 56%]
Pressure (altimeter): 30.20 inches Hg (1022.8 mb)
Winds: from the NE (40 degrees) at 21 MPH (18 knots; 9.4 m/sgusting to 24 MPH (21 knots; 10.9 m/s)
Visibility: 10 or more miles (16+ km)
Ceiling: 7500 feet AGL
Clouds: broken clouds at 7500 feet AGL
broken clouds at 11000 feet AGL
Weather: -RA VCTS  (light rain, thunderstorm in vicinity)

METAR text: KAFF 252123Z 03016G21KT 10SM -TSRAGS BKN075 OVC110 18/09 A3022 RMK LTG DSNT NE-S AND W-NW RAB12 TSB10GSB23
Conditions at: KAFF (USAF ACADEMY/COS, CO, US) observed 2123 UTC 25 June 2016
Temperature: 18.0°C (64°F)
Dewpoint: 9.0°C (48°F) [RH = 56%]
Pressure (altimeter): 30.22 inches Hg (1023.5 mb)
Winds: from the NNE (30 degrees) at 18 MPH (16 knots; 8.3 m/sgusting to 24 MPH (21 knots; 10.9 m/s)
Visibility: 10 or more miles (16+ km)
Ceiling: 7500 feet AGL
Clouds: broken clouds at 7500 feet AGL
overcast cloud deck at 11000 feet AGL
Weather: -TSRA -TSGS  (light rain associated with thunderstorm(s) could not decipher "-TSGS")

METAR text: KAFF 252121Z AUTO 03016G21KT 10SM -TSRA BKN075 OVC110 18/09 A3023 RMK AO2 WSHFT 16 LTG DSNT W-S RAB12 TSB10
Conditions at: KAFF (USAF ACADEMY/COS, CO, US) observed 2121 UTC 25 June 2016
Temperature: 18.0°C (64°F)
Dewpoint: 9.0°C (48°F) [RH = 56%]
Pressure (altimeter): 30.23 inches Hg (1023.8 mb)
Winds: from the NNE (30 degrees) at 18 MPH (16 knots; 8.3 m/sgusting to 24 MPH (21 knots; 10.9 m/s)
Visibility: 10 or more miles (16+ km)
Ceiling: 7500 feet AGL
Clouds: broken clouds at 7500 feet AGL
overcast cloud deck at 11000 feet AGL
Weather: -TSRA  (light rain associated with thunderstorm(s))

METAR text: KAFF 252112Z AUTO 35019G27KT 10SM -TSRA BKN080 OVC120 19/07 A3024 RMK AO2 LTG DSNT NW-E RAB12 TSB10
Conditions at: KAFF (USAF ACADEMY/COS, CO, US) observed 2112 UTC 25 June 2016
Temperature: 19.0°C (66°F)
Dewpoint: 7.0°C (45°F) [RH = 46%]
Pressure (altimeter): 30.24 inches Hg (1024.1 mb)
Winds: from the N (350 degrees) at 22 MPH (19 knots; 9.9 m/sgusting to 31 MPH (27 knots; 14.0 m/s)
Visibility: 10 or more miles (16+ km)
Ceiling: 8000 feet AGL
Clouds: broken clouds at 8000 feet AGL
overcast cloud deck at 12000 feet AGL
Weather: -TSRA  (light rain associated with thunderstorm(s))

METAR text: KAFF 252110Z AUTO 36018G28KT 10SM TS BKN080 OVC120 19/07 A3024 RMK AO2 LTG DSNT N-NE TSB10
Conditions at: KAFF (USAF ACADEMY/COS, CO, US) observed 2110 UTC 25 June 2016
Temperature: 19.0°C (66°F)
Dewpoint: 7.0°C (45°F) [RH = 46%]
Pressure (altimeter): 30.24 inches Hg (1024.1 mb)
Winds: from the N (360 degrees) at 21 MPH (18 knots; 9.4 m/sgusting to 32 MPH (28 knots; 14.6 m/s)
Visibility: 10 or more miles (16+ km)
Ceiling: 8000 feet AGL
Clouds: broken clouds at 8000 feet AGL
overcast cloud deck at 12000 feet AGL
Weather: TS  (thunderstorm)

METAR text: KAFF 252058Z AUTO 35025G34KT 10SM SCT080 BKN120 BKN150 23/06 A3024 RMK AO2 PK WND 33034/50 LTG DSNT N AND S DZB47E56 SLP150 P0000 60000 53015
Conditions at: KAFF (USAF ACADEMY/COS, CO, US) observed 2058 UTC 25 June 2016
Temperature: 23.0°C (73°F)
Dewpoint: 6.0°C (43°F) [RH = 33%]
Pressure (altimeter): 30.24 inches Hg (1024.1 mb[Sea-level pressure: 1015.0 mb]
Winds: from the N (350 degrees) at 29 MPH (25 knots; 13.0 m/sgusting to 39 MPH (34 knots; 17.7 m/s)
Visibility: 10 or more miles (16+ km)
Ceiling: 12000 feet AGL
Clouds: scattered clouds at 8000 feet AGL
broken clouds at 12000 feet AGL
broken clouds at 15000 feet AGL
Weather: automated observation with no human augmentation;
there may or may not be significant weather present at this time

METAR text: KAFF 252056Z AUTO 34026G34KT 10SM SCT080 BKN120 BKN150 24/07 A3024 RMK AO2 LTG DSNT N AND S DZB47E56 PRESRR
Conditions at: KAFF (USAF ACADEMY/COS, CO, US) observed 2056 UTC 25 June 2016
Temperature: 24.0°C (75°F)
Dewpoint: 7.0°C (45°F) [RH = 34%]
Pressure (altimeter): 30.24 inches Hg (1024.1 mb)
Winds: from the NNW (340 degrees) at 30 MPH (26 knots; 13.5 m/sgusting to 39 MPH (34 knots; 17.7 m/s)
Visibility: 10 or more miles (16+ km)
Ceiling: 12000 feet AGL
Clouds: scattered clouds at 8000 feet AGL
broken clouds at 12000 feet AGL
broken clouds at 15000 feet AGL
Weather: automated observation with no human augmentation;
there may or may not be significant weather present at this time

METAR text: KAFF 252047Z 35004KT 10SM -RA VCTS SCT120 BKN150 BKN190 26/08 A3020 RMK AO2A RAB47
Conditions at: KAFF (USAF ACADEMY/COS, CO, US) observed 2047 UTC 25 June 2016
Temperature: 26.0°C (79°F)
Dewpoint: 8.0°C (46°F) [RH = 32%]
Pressure (altimeter): 30.20 inches Hg (1022.8 mb)
Winds: from the N (350 degrees) at 5 MPH (4 knots; 2.1 m/s)
Visibility: 10 or more miles (16+ km)
Ceiling: 15000 feet AGL
Clouds: scattered clouds at 12000 feet AGL
broken clouds at 15000 feet AGL
broken clouds at 19000 feet AGL
Weather: -RA VCTS  (light rain, thunderstorm in vicinity)

METAR text: KAFF 251958Z AUTO 14007KT 10SM SCT180 25/08 A3017 RMK AO2 SLP125 T02490082
Conditions at: KAFF (USAF ACADEMY/COS, CO, US) observed 1958 UTC 25 June 2016
Temperature: 24.9°C (77°F)
Dewpoint: 8.2°C (47°F) [RH = 35%]
Pressure (altimeter): 30.17 inches Hg (1021.8 mb[Sea-level pressure: 1012.5 mb]
Winds: from the SE (140 degrees) at 8 MPH (7 knots; 3.6 m/s)
Visibility: 10 or more miles (16+ km)
Ceiling: at least 12,000 feet AGL
Clouds: scattered clouds at 18000 feet AGL
Weather: automated observation with no human augmentation;
there may or may not be significant weather present at this time

METAR text: KAFF 251858Z AUTO 14009KT 10SM FEW130 SCT190 28/08 A3017 RMK AO2 SLP119 T02800079
Conditions at: KAFF (USAF ACADEMY/COS, CO, US) observed 1858 UTC 25 June 2016
Temperature: 28.0°C (82°F)
Dewpoint: 7.9°C (46°F) [RH = 28%]
Pressure (altimeter): 30.17 inches Hg (1021.8 mb[Sea-level pressure: 1011.9 mb]
Winds: from the SE (140 degrees) at 10 MPH (9 knots; 4.7 m/s)
Visibility: 10 or more miles (16+ km)
Ceiling: at least 12,000 feet AGL
Clouds: few clouds at 13000 feet AGL
scattered clouds at 19000 feet AGL
Weather: automated observation with no human augmentation;
there may or may not be significant weather present at this time

METAR text: KAFF 251758Z AUTO VRB04KT 10SM FEW130 SCT200 SCT220 26/07 A3018 RMK AO2 SLP126 T02600074 10263 20144 55001
Conditions at: KAFF (USAF ACADEMY/COS, CO, US) observed 1758 UTC 25 June 2016
Temperature: 26.0°C (79°F)
Dewpoint: 7.4°C (45°F) [RH = 31%]
Pressure (altimeter): 30.18 inches Hg (1022.1 mb[Sea-level pressure: 1012.6 mb]
Winds: variable direction winds at 5 MPH (4 knots; 2.1 m/s)
Visibility: 10 or more miles (16+ km)
Ceiling: at least 12,000 feet AGL
Clouds: few clouds at 13000 feet AGL
scattered clouds at 20000 feet AGL
scattered clouds at 22000 feet AGL
Weather: automated observation with no human augmentation;
there may or may not be significant weather present at this time

METAR text: KAFF 251658Z AUTO 01006KT 10SM FEW200 26/08 A3019 RMK AO2 SLP129 T02590079
Conditions at: KAFF (USAF ACADEMY/COS, CO, US) observed 1658 UTC 25 June 2016
Temperature: 25.9°C (79°F)
Dewpoint: 7.9°C (46°F) [RH = 32%]
Pressure (altimeter): 30.19 inches Hg (1022.4 mb[Sea-level pressure: 1012.9 mb]
Winds: from the N (10 degrees) at 7 MPH (6 knots; 3.1 m/s)
Visibility: 10 or more miles (16+ km)
Ceiling: at least 12,000 feet AGL
Clouds: few clouds at 20000 feet AGL
Weather: automated observation with no human augmentation;
there may or may not be significant weather present at this time

METAR text: KAFF 251558Z AUTO 36009KT 10SM FEW200 25/07 A3018 RMK AO2 SLP126 T02510072
Conditions at: KAFF (USAF ACADEMY/COS, CO, US) observed 1558 UTC 25 June 2016
Temperature: 25.1°C (77°F)
Dewpoint: 7.2°C (45°F) [RH = 32%]
Pressure (altimeter): 30.18 inches Hg (1022.1 mb[Sea-level pressure: 1012.6 mb]
Winds: from the N (360 degrees) at 10 MPH (9 knots; 4.7 m/s)
Visibility: 10 or more miles (16+ km)
Ceiling: at least 12,000 feet AGL
Clouds: few clouds at 20000 feet AGL
Weather: automated observation with no human augmentation;
there may or may not be significant weather present at this time

METAR text: KAFF 251458Z AUTO 34005KT 10SM FEW190 23/07 A3019 RMK AO2 SLP123 T02330068 52013
Conditions at: KAFF (USAF ACADEMY/COS, CO, US) observed 1458 UTC 25 June 2016
Temperature: 23.3°C (74°F)
Dewpoint: 6.8°C (44°F) [RH = 35%]
Pressure (altimeter): 30.19 inches Hg (1022.4 mb[Sea-level pressure: 1012.3 mb]
Winds: from the NNW (340 degrees) at 6 MPH (5 knots; 2.6 m/s)
Visibility: 10 or more miles (16+ km)
Ceiling: at least 12,000 feet AGL
Clouds: few clouds at 19000 feet AGL
Weather: automated observation with no human augmentation;
there may or may not be significant weather present at this time

METAR text: KAFF 251358Z AUTO 35008KT 10SM FEW190 19/10 A3017 RMK AO2 SLP122 T01850099
Conditions at: KAFF (USAF ACADEMY/COS, CO, US) observed 1358 UTC 25 June 2016
Temperature: 18.5°C (65°F)
Dewpoint: 9.9°C (50°F) [RH = 57%]
Pressure (altimeter): 30.17 inches Hg (1021.8 mb[Sea-level pressure: 1012.2 mb]
Winds: from the N (350 degrees) at 9 MPH (8 knots; 4.2 m/s)
Visibility: 10 or more miles (16+ km)
Ceiling: at least 12,000 feet AGL
Clouds: few clouds at 19000 feet AGL
Weather: automated observation with no human augmentation;
there may or may not be significant weather present at this time

METAR text: KAFF 251258Z AUTO 01009KT 10SM SCT190 16/08 A3016 RMK AO2 SLP122 T01600084
Conditions at: KAFF (USAF ACADEMY/COS, CO, US) observed 1258 UTC 25 June 2016
Temperature: 16.0°C (61°F)
Dewpoint: 8.4°C (47°F) [RH = 61%]
Pressure (altimeter): 30.16 inches Hg (1021.4 mb[Sea-level pressure: 1012.2 mb]
Winds: from the N (10 degrees) at 10 MPH (9 knots; 4.7 m/s)
Visibility: 10 or more miles (16+ km)
Ceiling: at least 12,000 feet AGL
Clouds: scattered clouds at 19000 feet AGL
Weather: automated observation with no human augmentation;
there may or may not be significant weather present at this time

METAR text: KAFF 251158Z AUTO 36009KT 10SM FEW180 16/08 A3014 RMK AO2 SLP115 T01600077 10169 20136 53007
Conditions at: KAFF (USAF ACADEMY/COS, CO, US) observed 1158 UTC 25 June 2016
Temperature: 16.0°C (61°F)
Dewpoint: 7.7°C (46°F) [RH = 58%]
Pressure (altimeter): 30.14 inches Hg (1020.7 mb[Sea-level pressure: 1011.5 mb]
Winds: from the N (360 degrees) at 10 MPH (9 knots; 4.7 m/s)
Visibility: 10 or more miles (16+ km)
Ceiling: at least 12,000 feet AGL
Clouds: few clouds at 18000 feet AGL
Weather: automated observation with no human augmentation;
there may or may not be significant weather present at this time

METAR text: KAFF 251058Z AUTO 02006KT 10SM FEW200 14/09 A3013 RMK AO2 SLP116 T01360088
Conditions at: KAFF (USAF ACADEMY/COS, CO, US) observed 1058 UTC 25 June 2016
Temperature: 13.6°C (56°F)
Dewpoint: 8.8°C (48°F) [RH = 73%]
Pressure (altimeter): 30.13 inches Hg (1020.4 mb[Sea-level pressure: 1011.6 mb]
Winds: from the NNE (20 degrees) at 7 MPH (6 knots; 3.1 m/s)
Visibility: 10 or more miles (16+ km)
Ceiling: at least 12,000 feet AGL
Clouds: few clouds at 20000 feet AGL
Weather: automated observation with no human augmentation;
there may or may not be significant weather present at this time

METAR text: KAFF 250958Z AUTO 00000KT 10SM FEW200 17/09 A3011 RMK AO2 SLP104 T01670085
Conditions at: KAFF (USAF ACADEMY/COS, CO, US) observed 0958 UTC 25 June 2016
Temperature: 16.7°C (62°F)
Dewpoint: 8.5°C (47°F) [RH = 58%]
Pressure (altimeter): 30.11 inches Hg (1019.7 mb[Sea-level pressure: 1010.4 mb]
Winds: calm
Visibility: 10 or more miles (16+ km)
Ceiling: at least 12,000 feet AGL
Clouds: few clouds at 20000 feet AGL
Weather: automated observation with no human augmentation;
there may or may not be significant weather present at this time

METAR text: KAFF 250858Z AUTO 25001KT 10SM FEW110 16/09 A3012 RMK AO2 SLP105 T01590087 55003
Conditions at: KAFF (USAF ACADEMY/COS, CO, US) observed 0858 UTC 25 June 2016
Temperature: 15.9°C (61°F)
Dewpoint: 8.7°C (48°F) [RH = 62%]
Pressure (altimeter): 30.12 inches Hg (1020.1 mb[Sea-level pressure: 1010.5 mb]
Winds: from the WSW (250 degrees) at 1 MPH (1 knots; 0.5 m/s)
Visibility: 10 or more miles (16+ km)
Ceiling: at least 12,000 feet AGL
Clouds: few clouds at 11000 feet AGL
Weather: automated observation with no human augmentation;
there may or may not be significant weather present at this time

METAR text: KAFF 250758Z AUTO 02006KT 10SM SCT130 15/09 A3011 RMK AO2 SLP101 T01480094
Conditions at: KAFF (USAF ACADEMY/COS, CO, US) observed 0758 UTC 25 June 2016
Temperature: 14.8°C (59°F)
Dewpoint: 9.4°C (49°F) [RH = 70%]
Pressure (altimeter): 30.11 inches Hg (1019.7 mb[Sea-level pressure: 1010.1 mb]
Winds: from the NNE (20 degrees) at 7 MPH (6 knots; 3.1 m/s)
Visibility: 10 or more miles (16+ km)
Ceiling: at least 12,000 feet AGL
Clouds: scattered clouds at 13000 feet AGL
Weather: automated observation with no human augmentation;
there may or may not be significant weather present at this time